Time;durP1;ratioP1;P1;durP2;ratioP2;P2;SDS_P1;SDS_P2;PMS_P1;PMS_P2;Temp;Humidity;BMP_temperature;BMP_pressure;BME280_temperature;BME280_humidity;BME280_pressure;Samples;Min_cycle;Max_cycle;Signal;HPM_P1;HPM_P2
2022/10/07 00:02:13;;;;;;;12.43;11.33;;;11.20;99.90;;;;;;5059054;28;20467;-79
2022/10/07 00:04:45;;;;;;;13.83;12.40;;;11.20;99.90;;;;;;5062184;28;20494;-80
2022/10/07 00:07:13;;;;;;;17.80;12.30;;;11.10;99.90;;;;;;5061636;28;20865;-79
2022/10/07 00:09:40;;;;;;;14.77;12.67;;;11.10;99.90;;;;;;5059167;28;20517;-81
2022/10/07 00:12:07;;;;;;;13.80;12.40;;;11.10;99.90;;;;;;5059113;28;20461;-80
2022/10/07 00:14:34;;;;;;;13.47;12.20;;;11.10;99.90;;;;;;5060243;28;20543;-78
2022/10/07 00:17:01;;;;;;;13.00;11.90;;;11.00;99.90;;;;;;5056489;28;20525;-79
2022/10/07 00:19:28;;;;;;;12.90;11.57;;;11.00;99.90;;;;;;5060585;28;20536;-79
2022/10/07 00:21:56;;;;;;;13.00;11.80;;;10.90;99.90;;;;;;5057763;28;20501;-80
2022/10/07 00:24:23;;;;;;;16.03;13.03;;;10.90;99.90;;;;;;5061154;28;20514;-80
2022/10/07 00:26:50;;;;;;;12.80;11.60;;;10.90;99.90;;;;;;5060323;28;20519;-80
2022/10/07 00:29:17;;;;;;;15.23;11.80;;;10.90;99.90;;;;;;5058983;28;20464;-80
2022/10/07 00:31:44;;;;;;;13.67;12.17;;;10.80;99.90;;;;;;5059810;28;20521;-79
2022/10/07 00:34:12;;;;;;;13.13;11.93;;;10.80;99.90;;;;;;5061835;28;20553;-79
2022/10/07 00:36:39;;;;;;;13.33;12.10;;;10.80;99.90;;;;;;5061168;28;20467;-79
2022/10/07 00:39:10;;;;;;;13.30;12.10;;;10.80;99.90;;;;;;5061215;28;20842;-78
2022/10/07 00:41:41;;;;;;;14.97;13.03;;;10.80;99.90;;;;;;5062476;28;20738;-78
2022/10/07 00:44:35;;;;;;;15.50;12.47;;;10.70;99.90;;;;;;5059798;28;20464;-78
2022/10/07 00:47:05;;;;;;;16.10;14.40;;;10.70;99.90;;;;;;5058225;28;20459;-78
2022/10/07 00:49:38;;;;;;;12.53;11.37;;;10.70;99.90;;;;;;5062791;28;20458;-78
2022/10/07 00:52:05;;;;;;;14.83;13.53;;;10.70;99.90;;;;;;5060255;28;20457;-78
2022/10/07 00:54:34;;;;;;;13.63;12.30;;;10.70;99.90;;;;;;5065543;28;20865;-78
2022/10/07 00:57:01;;;;;;;14.07;12.77;;;10.70;99.90;;;;;;5063270;28;20579;-77
2022/10/07 00:59:28;;;;;;;13.97;12.57;;;10.80;99.90;;;;;;5074800;28;20553;-78
2022/10/07 01:01:55;;;;;;;14.73;12.30;;;10.90;99.90;;;;;;5062631;28;20542;-78
2022/10/07 01:04:22;;;;;;;18.67;14.10;;;10.90;99.90;;;;;;5059673;28;20554;-78
2022/10/07 01:06:49;;;;;;;14.73;13.30;;;10.90;99.90;;;;;;5059107;28;20468;-78
2022/10/07 01:09:16;;;;;;;17.33;15.67;;;11.10;99.90;;;;;;5059597;28;20506;-78
2022/10/07 01:11:55;;;;;;;12.57;11.27;;;11.00;99.90;;;;;;5059697;28;20452;-78
2022/10/07 01:14:34;;;;;;;13.93;12.53;;;11.10;99.90;;;;;;5059376;28;20839;-78
2022/10/07 01:17:07;;;;;;;13.20;11.87;;;11.20;99.90;;;;;;5059841;28;20457;-78
2022/10/07 01:19:53;;;;;;;15.07;11.70;;;11.30;99.90;;;;;;5058790;28;20460;-78
2022/10/07 01:22:30;;;;;;;10.97;9.83;;;11.30;99.90;;;;;;5061448;28;20467;-78
2022/10/07 01:25:11;;;;;;;10.03;9.13;;;11.10;99.90;;;;;;5057412;28;21113;-78
2022/10/07 01:27:46;;;;;;;12.30;10.80;;;11.10;99.90;;;;;;5058339;28;20498;-77
2022/10/07 01:30:13;;;;;;;13.20;12.07;;;11.00;99.90;;;;;;5059946;28;20512;-77
2022/10/07 01:32:43;;;;;;;13.33;12.10;;;11.00;99.90;;;;;;5061713;28;20459;-77
2022/10/07 01:35:15;;;;;;;14.40;13.20;;;11.10;99.90;;;;;;5058751;28;20459;-77
2022/10/07 01:37:47;;;;;;;12.43;11.27;;;11.10;99.90;;;;;;5062005;28;20464;-77
2022/10/07 01:40:18;;;;;;;12.93;11.73;;;11.00;99.90;;;;;;5061038;28;21910;-78
2022/10/07 01:42:48;;;;;;;12.83;11.60;;;11.00;99.90;;;;;;5059664;28;20505;-77
2022/10/07 01:45:20;;;;;;;15.57;13.93;;;11.10;99.90;;;;;;5060492;28;20647;-77
2022/10/07 01:47:47;;;;;;;15.60;13.70;;;11.10;99.90;;;;;;5055573;28;20521;-78
2022/10/07 01:50:15;;;;;;;14.53;12.90;;;11.00;99.90;;;;;;5058969;28;20836;-77
2022/10/07 01:52:58;;;;;;;15.50;12.23;;;11.00;99.90;;;;;;5057601;28;20513;-77
2022/10/07 01:55:41;;;;;;;13.80;10.53;;;11.00;99.90;;;;;;5057822;28;20971;-77
2022/10/07 01:58:23;;;;;;;13.83;12.53;;;11.00;99.90;;;;;;5056484;28;20455;-78
2022/10/07 02:00:59;;;;;;;13.60;12.40;;;11.00;99.90;;;;;;5057830;28;20794;-79
2022/10/07 02:03:46;;;;;;;16.13;14.50;;;11.00;99.90;;;;;;5059204;28;20473;-78
2022/10/07 02:06:24;;;;;;;14.67;11.73;;;10.90;99.90;;;;;;5059760;28;20556;-78
2022/10/07 02:08:53;;;;;;;12.53;11.33;;;10.90;99.90;;;;;;5058834;28;20467;-77
2022/10/07 02:11:23;;;;;;;14.90;12.60;;;10.90;99.90;;;;;;5057274;28;20460;-78
2022/10/07 02:13:59;;;;;;;15.13;13.03;;;10.80;99.90;;;;;;5060132;28;20455;-78
2022/10/07 02:16:31;;;;;;;13.70;12.40;;;10.80;99.90;;;;;;5061164;28;20494;-77
2022/10/07 02:19:01;;;;;;;14.47;13.03;;;10.80;99.90;;;;;;5055129;28;20971;-78
2022/10/07 02:21:33;;;;;;;17.27;15.63;;;10.80;99.90;;;;;;5058911;28;20544;-78
2022/10/07 02:24:01;;;;;;;17.67;14.97;;;10.80;99.90;;;;;;5058105;28;20463;-78
2022/10/07 02:26:30;;;;;;;13.90;12.60;;;10.80;99.90;;;;;;5059682;28;20962;-77
2022/10/07 02:29:02;;;;;;;17.73;13.37;;;10.80;99.90;;;;;;5055933;28;20470;-78
2022/10/07 02:31:32;;;;;;;18.30;14.20;;;10.70;99.90;;;;;;5059976;28;21208;-77
2022/10/07 02:34:01;;;;;;;15.63;14.17;;;10.70;99.90;;;;;;5055485;28;20922;-78
2022/10/07 02:36:32;;;;;;;20.23;16.70;;;10.80;99.90;;;;;;5059576;28;20460;-78
2022/10/07 02:39:00;;;;;;;20.40;17.33;;;10.90;99.90;;;;;;5059713;28;20467;-77
2022/10/07 02:41:40;;;;;;;20.03;16.40;;;11.00;99.90;;;;;;5060128;28;20490;-78
2022/10/07 02:44:20;;;;;;;18.23;16.33;;;11.00;99.90;;;;;;5059577;28;21219;-77
2022/10/07 02:46:51;;;;;;;18.07;16.33;;;11.00;99.90;;;;;;5057703;28;20513;-77
2022/10/07 02:49:22;;;;;;;16.23;14.53;;;11.00;99.90;;;;;;5063632;28;20524;-78
2022/10/07 02:51:56;;;;;;;17.43;15.67;;;11.00;99.90;;;;;;5062116;28;20467;-77
2022/10/07 02:54:28;;;;;;;12.43;11.33;;;10.90;99.90;;;;;;5062160;28;20464;-78
2022/10/07 02:56:56;;;;;;;14.30;12.40;;;10.90;99.90;;;;;;5063000;28;20513;-77
2022/10/07 02:59:26;;;;;;;12.50;11.40;;;10.60;99.90;;;;;;5065930;28;20455;-78
2022/10/07 03:01:57;;;;;;;12.70;9.87;;;10.50;99.90;;;;;;5068981;28;20455;-78
2022/10/07 03:04:24;;;;;;;12.50;10.50;;;10.20;99.90;;;;;;5078276;28;20452;-78
2022/10/07 03:06:51;;;;;;;10.70;9.70;;;10.10;99.90;;;;;;5060317;28;20548;-78
2022/10/07 03:09:19;;;;;;;12.23;11.03;;;10.10;99.90;;;;;;5063315;28;20842;-78
2022/10/07 03:11:46;;;;;;;11.00;10.00;;;10.00;99.90;;;;;;5066124;28;20471;-78
2022/10/07 03:14:13;;;;;;;11.50;10.60;;;9.90;99.90;;;;;;5062923;28;20552;-77
2022/10/07 03:16:41;;;;;;;12.40;11.30;;;10.00;99.90;;;;;;5065458;28;21122;-77
2022/10/07 03:19:09;;;;;;;12.53;11.23;;;10.00;99.90;;;;;;5059520;28;20872;-78
2022/10/07 03:21:36;;;;;;;14.37;11.37;;;10.20;99.90;;;;;;5060945;28;20474;-78
2022/10/07 03:24:04;;;;;;;13.60;12.40;;;10.20;99.90;;;;;;5063784;28;20467;-78
2022/10/07 03:26:32;;;;;;;14.33;13.00;;;10.30;99.90;;;;;;5062394;28;20485;-78
2022/10/07 03:29:00;;;;;;;13.57;12.27;;;10.40;99.90;;;;;;5058318;28;20545;-78
2022/10/07 03:31:27;;;;;;;15.17;13.57;;;10.60;99.90;;;;;;5059777;28;20464;-77
2022/10/07 03:33:56;;;;;;;19.53;15.93;;;10.70;99.90;;;;;;5062379;28;20459;-78
2022/10/07 03:36:24;;;;;;;18.27;16.43;;;10.80;99.90;;;;;;5063803;28;21043;-78
2022/10/07 03:38:52;;;;;;;18.10;14.93;;;10.80;99.90;;;;;;5060677;28;20487;-78
2022/10/07 03:41:19;;;;;;;14.93;13.53;;;10.90;99.90;;;;;;5058212;28;20455;-78
2022/10/07 03:43:46;;;;;;;13.57;12.30;;;10.80;99.90;;;;;;5065103;28;20547;-78
2022/10/07 03:46:13;;;;;;;12.87;11.53;;;10.80;99.90;;;;;;5058522;28;20533;-77
2022/10/07 03:48:40;;;;;;;13.30;12.13;;;10.80;99.90;;;;;;5061527;28;20467;-78
2022/10/07 03:51:09;;;;;;;14.47;12.67;;;10.60;99.90;;;;;;5056801;28;20576;-77
2022/10/07 03:53:39;;;;;;;13.83;12.53;;;10.50;99.90;;;;;;5062843;28;20483;-78
2022/10/07 03:56:06;;;;;;;12.40;11.17;;;10.50;99.90;;;;;;5062451;28;20789;-78
2022/10/07 03:58:33;;;;;;;13.97;12.53;;;10.50;99.90;;;;;;5058570;28;21043;-78
2022/10/07 04:01:05;;;;;;;16.43;14.73;;;10.50;99.90;;;;;;5055833;28;20517;-78
2022/10/07 04:03:32;;;;;;;13.87;12.47;;;10.50;99.90;;;;;;5058526;28;20461;-78
2022/10/07 04:06:00;;;;;;;13.70;12.40;;;10.50;99.90;;;;;;5056353;28;20556;-78
2022/10/07 04:08:29;;;;;;;16.70;14.33;;;10.60;99.90;;;;;;5059414;28;20983;-78
2022/10/07 04:10:57;;;;;;;13.20;12.00;;;10.60;99.90;;;;;;5057606;28;21259;-78
2022/10/07 04:13:24;;;;;;;14.20;12.83;;;10.60;99.90;;;;;;5063152;28;20500;-78
2022/10/07 04:15:52;;;;;;;13.27;11.07;;;10.60;99.90;;;;;;5063652;28;20456;-78
2022/10/07 04:18:19;;;;;;;12.40;11.20;;;10.60;99.90;;;;;;5060375;28;20579;-78
2022/10/07 04:20:46;;;;;;;12.93;11.60;;;10.60;99.90;;;;;;5057316;28;20463;-78
2022/10/07 04:23:13;;;;;;;13.03;11.70;;;10.60;99.90;;;;;;5060711;28;20452;-79
2022/10/07 04:25:44;;;;;;;13.80;12.50;;;10.70;99.90;;;;;;5062723;28;20460;-79
2022/10/07 04:28:16;;;;;;;12.97;11.73;;;10.80;99.90;;;;;;5057612;28;20488;-78
2022/10/07 04:30:43;;;;;;;13.00;11.40;;;10.70;99.90;;;;;;5061511;28;20541;-78
2022/10/07 04:33:12;;;;;;;14.40;12.93;;;10.80;99.90;;;;;;5058964;28;20924;-77
2022/10/07 04:35:40;;;;;;;16.10;14.07;;;10.80;99.90;;;;;;5060270;28;20857;-77
2022/10/07 04:38:09;;;;;;;16.10;14.50;;;10.90;99.90;;;;;;5059853;28;20931;-78
2022/10/07 04:40:39;;;;;;;24.93;14.57;;;10.90;99.90;;;;;;5061039;28;20580;-78
2022/10/07 04:43:21;;;;;;;13.93;12.50;;;10.80;99.90;;;;;;5059084;28;20459;-78
2022/10/07 04:45:50;;;;;;;13.27;11.97;;;10.70;99.90;;;;;;5058297;28;20510;-78
2022/10/07 04:48:18;;;;;;;12.33;11.17;;;10.80;99.90;;;;;;5060549;28;20464;-78
2022/10/07 04:50:45;;;;;;;13.30;12.03;;;10.90;99.90;;;;;;5062493;28;20554;-78
2022/10/07 04:53:14;;;;;;;13.80;12.47;;;11.00;99.90;;;;;;5058658;28;20542;-78
2022/10/07 04:55:43;;;;;;;13.80;12.40;;;10.90;99.90;;;;;;5060054;28;20463;-78
2022/10/07 04:58:11;;;;;;;14.43;12.20;;;11.10;99.90;;;;;;5057418;28;20492;-77
2022/10/07 05:00:43;;;;;;;17.13;12.10;;;10.90;99.90;;;;;;5057248;28;20946;-78
2022/10/07 05:03:10;;;;;;;15.50;12.90;;;10.90;99.90;;;;;;5057241;28;21501;-78
2022/10/07 05:05:41;;;;;;;13.13;11.83;;;10.90;99.90;;;;;;5063518;28;20485;-78
2022/10/07 05:08:08;;;;;;;13.13;11.83;;;10.90;99.90;;;;;;5077248;28;20456;-78
2022/10/07 05:10:36;;;;;;;13.33;11.53;;;10.90;99.90;;;;;;5060685;28;20463;-78
2022/10/07 05:13:04;;;;;;;13.07;11.77;;;10.90;99.90;;;;;;5057845;28;20479;-77
2022/10/07 05:15:33;;;;;;;13.97;12.63;;;10.90;99.90;;;;;;5062991;28;20456;-78
2022/10/07 05:18:00;;;;;;;15.63;12.60;;;11.00;99.90;;;;;;5060410;28;20469;-77
2022/10/07 05:20:26;;;;;;;13.40;10.63;;;10.90;99.90;;;;;;5040460;28;20463;-77
2022/10/07 05:22:54;;;;;;;12.87;11.63;;;10.90;99.90;;;;;;5042518;28;20518;-78
2022/10/07 05:25:21;;;;;;;15.83;11.27;;;10.90;99.90;;;;;;5048715;28;20469;-78
2022/10/07 05:27:53;;;;;;;10.10;9.20;;;11.00;99.90;;;;;;5047584;28;20552;-78
2022/10/07 05:30:21;;;;;;;9.50;8.70;;;11.00;99.90;;;;;;5053633;28;20539;-78
2022/10/07 05:32:50;;;;;;;10.83;9.73;;;11.00;99.90;;;;;;5057015;28;20586;-77
2022/10/07 05:35:17;;;;;;;11.70;10.50;;;10.90;99.90;;;;;;5055227;28;20482;-78
2022/10/07 05:37:44;;;;;;;11.63;10.43;;;11.00;99.90;;;;;;5060707;28;20455;-77
2022/10/07 05:40:11;;;;;;;12.93;9.70;;;10.90;99.90;;;;;;5056062;28;20465;-78
2022/10/07 05:42:38;;;;;;;15.13;10.30;;;11.00;99.90;;;;;;5061393;28;20482;-78
2022/10/07 05:45:06;;;;;;;12.23;10.97;;;11.10;99.90;;;;;;5056189;28;20459;-78
2022/10/07 05:47:33;;;;;;;10.90;9.80;;;11.10;99.90;;;;;;5054360;28;20897;-77
2022/10/07 05:50:02;;;;;;;11.07;10.07;;;11.10;99.90;;;;;;5061015;28;20466;-78
2022/10/07 05:52:29;;;;;;;11.43;9.43;;;11.00;99.90;;;;;;5060799;28;20491;-77
2022/10/07 05:54:57;;;;;;;11.17;10.17;;;11.00;99.90;;;;;;5061336;28;20469;-78
2022/10/07 05:57:24;;;;;;;11.03;9.93;;;11.00;99.90;;;;;;5060179;28;20456;-77
2022/10/07 05:59:51;;;;;;;9.90;8.97;;;11.10;99.90;;;;;;5059398;28;21441;-78
2022/10/07 06:02:19;;;;;;;12.73;11.47;;;11.10;99.90;;;;;;5059729;28;20453;-80
2022/10/07 06:04:47;;;;;;;11.10;9.97;;;11.30;99.90;;;;;;5063149;28;20449;-79
2022/10/07 06:07:16;;;;;;;11.63;10.57;;;11.20;99.90;;;;;;5055299;28;20481;-79
2022/10/07 06:15:12;;;;;;;13.53;11.17;;;11.20;99.90;;;;;;5055188;28;20482;-77
2022/10/07 06:17:42;;;;;;;12.37;11.20;;;11.20;99.90;;;;;;5046749;28;20470;-77
2022/10/07 06:20:10;;;;;;;13.53;12.23;;;11.20;99.90;;;;;;5049149;28;21131;-77
2022/10/07 06:22:38;;;;;;;13.50;12.10;;;11.20;99.90;;;;;;5059799;28;20464;-79
2022/10/07 06:25:07;;;;;;;14.60;13.10;;;11.20;99.90;;;;;;5054280;28;20459;-79
2022/10/07 06:27:34;;;;;;;12.73;11.50;;;11.30;99.90;;;;;;5056119;28;20524;-78
2022/10/07 06:30:02;;;;;;;14.77;12.13;;;11.40;99.90;;;;;;5049868;28;20467;-79
2022/10/07 06:32:31;;;;;;;11.70;10.60;;;11.40;99.90;;;;;;5052547;28;20553;-79
2022/10/07 06:34:59;;;;;;;12.50;10.70;;;11.50;99.90;;;;;;5057677;28;20521;-79
2022/10/07 06:37:26;;;;;;;14.17;12.87;;;11.60;99.90;;;;;;5058671;28;20464;-79
2022/10/07 06:39:54;;;;;;;15.00;13.47;;;11.60;99.90;;;;;;5058709;28;20457;-79
2022/10/07 06:42:21;;;;;;;16.87;12.37;;;11.60;99.90;;;;;;5051471;28;20525;-78
2022/10/07 06:44:48;;;;;;;16.30;13.93;;;11.70;99.90;;;;;;5060477;28;20470;-78
2022/10/07 06:47:15;;;;;;;17.00;12.80;;;11.70;99.90;;;;;;5056707;28;20510;-78
2022/10/07 06:49:42;;;;;;;16.30;12.57;;;11.70;99.90;;;;;;5059068;28;20491;-78
2022/10/07 06:52:11;;;;;;;16.27;13.90;;;11.80;99.90;;;;;;5055293;28;20549;-78
2022/10/07 06:54:38;;;;;;;14.63;12.50;;;11.80;99.90;;;;;;5056645;28;20468;-80
2022/10/07 06:57:06;;;;;;;13.50;12.10;;;11.90;99.90;;;;;;5059484;28;20459;-79
2022/10/07 06:59:33;;;;;;;18.17;15.07;;;11.90;99.90;;;;;;5062456;28;20449;-79
2022/10/07 07:02:00;;;;;;;21.07;13.37;;;12.00;99.90;;;;;;5060795;28;20521;-78
2022/10/07 07:04:27;;;;;;;13.97;11.13;;;12.10;99.90;;;;;;5060838;28;20452;-79
2022/10/07 07:06:54;;;;;;;15.30;12.80;;;12.10;99.90;;;;;;5064947;28;20512;-78
2022/10/07 07:09:21;;;;;;;13.87;12.40;;;11.90;99.90;;;;;;5053401;28;20491;-79
2022/10/07 07:11:48;;;;;;;16.83;13.30;;;12.10;99.90;;;;;;5057095;28;20495;-79
2022/10/07 07:14:18;;;;;;;12.63;11.37;;;12.20;99.90;;;;;;5061730;28;20445;-79
2022/10/07 07:16:44;;;;;;;12.57;11.27;;;12.30;99.90;;;;;;5059701;28;20519;-79
2022/10/07 07:19:13;;;;;;;16.73;12.70;;;12.20;99.90;;;;;;5065032;28;20444;-79
2022/10/07 07:21:40;;;;;;;16.07;14.30;;;12.30;99.90;;;;;;5064380;28;20458;-79
2022/10/07 07:24:08;;;;;;;15.80;11.50;;;12.30;99.90;;;;;;5058945;28;20960;-78
2022/10/07 07:26:39;;;;;;;16.07;13.90;;;12.40;99.90;;;;;;5058125;28;20471;-78
2022/10/07 07:29:06;;;;;;;16.80;14.30;;;12.50;99.90;;;;;;5062553;28;20473;-78
2022/10/07 07:31:36;;;;;;;16.87;14.13;;;12.60;99.90;;;;;;5056830;28;20484;-78
2022/10/07 07:34:06;;;;;;;16.60;12.90;;;12.60;99.90;;;;;;5057222;28;20917;-78
2022/10/07 07:36:35;;;;;;;16.10;13.47;;;12.70;99.90;;;;;;5050551;28;20468;-77
2022/10/07 07:39:07;;;;;;;17.60;14.90;;;12.80;99.90;;;;;;5049585;28;20483;-79
2022/10/07 07:41:37;;;;;;;14.37;12.50;;;12.60;99.90;;;;;;5057762;28;20816;-77
2022/10/07 07:44:07;;;;;;;17.70;15.80;;;12.70;99.90;;;;;;5056641;28;20471;-78
2022/10/07 07:46:38;;;;;;;22.93;18.30;;;12.60;99.90;;;;;;5055685;28;20888;-80
2022/10/07 07:49:09;;;;;;;18.43;14.83;;;12.80;99.90;;;;;;5067312;28;21194;-81
2022/10/07 07:51:36;;;;;;;16.30;14.50;;;12.90;99.90;;;;;;5075181;28;20438;-80
2022/10/07 07:54:05;;;;;;;14.73;13.13;;;13.10;99.90;;;;;;5055608;28;20473;-80
2022/10/07 07:56:32;;;;;;;17.43;13.43;;;13.20;99.90;;;;;;5057584;28;20506;-79
2022/10/07 07:59:00;;;;;;;18.17;12.83;;;13.10;99.90;;;;;;5054509;28;20567;-80
2022/10/07 08:01:30;;;;;;;18.63;14.67;;;13.10;99.90;;;;;;5053163;28;20560;-80
2022/10/07 08:03:59;;;;;;;20.03;14.03;;;13.10;99.90;;;;;;5047712;28;20570;-78
2022/10/07 08:06:27;;;;;;;17.20;15.40;;;13.20;99.90;;;;;;5051962;28;20620;-77
2022/10/07 08:08:58;;;;;;;18.10;15.97;;;13.20;99.90;;;;;;5051270;28;20494;-77
2022/10/07 08:11:25;;;;;;;17.47;15.73;;;13.30;99.90;;;;;;5060425;28;20446;-77
2022/10/07 08:13:54;;;;;;;20.77;18.67;;;13.30;99.90;;;;;;5064797;28;20478;-78
2022/10/07 08:16:22;;;;;;;63.97;57.70;;;13.40;99.90;;;;;;5059935;28;20461;-78
2022/10/07 08:18:51;;;;;;;30.20;26.90;;;13.50;99.90;;;;;;5055647;28;20550;-78
2022/10/07 08:21:21;;;;;;;134.77;105.80;;;13.40;99.90;;;;;;5051205;28;20474;-78
2022/10/07 08:23:53;;;;;;;37.13;30.33;;;13.40;99.90;;;;;;5063899;28;20454;-78
2022/10/07 08:26:20;;;;;;;37.43;32.67;;;13.40;99.90;;;;;;5050166;28;20960;-78
2022/10/07 08:28:47;;;;;;;47.93;43.00;;;13.50;99.90;;;;;;5055401;28;20930;-77
2022/10/07 08:31:17;;;;;;;44.77;39.93;;;13.60;99.90;;;;;;5061375;28;20534;-78
2022/10/07 08:33:45;;;;;;;22.97;20.77;;;13.60;99.90;;;;;;5071622;28;20443;-78
2022/10/07 08:36:14;;;;;;;21.23;17.20;;;13.70;99.90;;;;;;5056254;28;20462;-78
2022/10/07 08:38:43;;;;;;;17.70;14.93;;;13.80;99.90;;;;;;5064075;28;20772;-78
2022/10/07 08:41:23;;;;;;;18.93;16.07;;;13.90;99.90;;;;;;5053916;28;20530;-78
2022/10/07 08:43:51;;;;;;;20.23;18.20;;;13.90;99.90;;;;;;5060053;28;20988;-78
2022/10/07 08:46:21;;;;;;;22.43;18.47;;;14.00;99.90;;;;;;5055663;28;20492;-78
2022/10/07 08:48:57;;;;;;;51.20;46.30;;;14.20;99.90;;;;;;5062909;28;20579;-78
2022/10/07 08:51:31;;;;;;;28.60;25.93;;;14.30;99.90;;;;;;5061303;28;21179;-78
2022/10/07 08:54:00;;;;;;;17.67;15.87;;;14.50;99.90;;;;;;5064366;28;20533;-78
2022/10/07 08:56:30;;;;;;;25.20;22.60;;;14.50;99.90;;;;;;5063083;28;20528;-78
2022/10/07 08:59:09;;;;;;;21.10;18.37;;;14.40;99.90;;;;;;5064644;28;20514;-78
2022/10/07 09:01:50;;;;;;;24.93;22.33;;;14.40;99.90;;;;;;5058555;28;20469;-78
2022/10/07 09:04:26;;;;;;;23.23;20.93;;;14.40;99.90;;;;;;5059550;28;20451;-78
2022/10/07 09:06:59;;;;;;;20.63;15.07;;;14.30;99.90;;;;;;5064183;28;20886;-78
2022/10/07 09:09:36;;;;;;;16.43;14.63;;;14.40;99.90;;;;;;5062834;28;20517;-78
2022/10/07 09:12:08;;;;;;;18.47;16.77;;;14.30;99.90;;;;;;5046531;28;20468;-77
2022/10/07 09:14:39;;;;;;;25.33;22.73;;;14.50;99.90;;;;;;5063936;28;20456;-78
2022/10/07 09:17:11;;;;;;;15.40;13.80;;;14.60;99.90;;;;;;5057427;28;20522;-78
2022/10/07 09:19:43;;;;;;;15.60;14.10;;;14.50;99.90;;;;;;5064724;28;20450;-78
2022/10/07 09:22:18;;;;;;;17.37;13.40;;;14.60;99.90;;;;;;5056324;28;20821;-78
2022/10/07 09:24:48;;;;;;;16.60;15.07;;;14.60;99.90;;;;;;5064621;28;20453;-78
2022/10/07 09:27:18;;;;;;;17.73;16.20;;;14.80;99.90;;;;;;5054464;28;20495;-78
2022/10/07 09:29:46;;;;;;;13.63;12.23;;;14.90;99.90;;;;;;5064243;28;20479;-78
2022/10/07 09:32:16;;;;;;;14.73;13.43;;;14.90;99.90;;;;;;5061038;28;20449;-78
2022/10/07 09:34:43;;;;;;;15.10;13.50;;;14.90;99.90;;;;;;5059675;28;20522;-78
2022/10/07 09:37:17;;;;;;;15.93;14.33;;;14.80;99.90;;;;;;5062499;28;20533;-78
2022/10/07 09:39:47;;;;;;;21.13;17.43;;;14.90;99.90;;;;;;5058403;28;20471;-78
2022/10/07 09:42:35;;;;;;;15.60;14.03;;;15.00;99.90;;;;;;5051397;28;20479;-78
2022/10/07 09:45:06;;;;;;;25.10;19.93;;;15.10;99.90;;;;;;5054655;28;20932;-78
2022/10/07 09:47:39;;;;;;;16.60;13.70;;;15.00;99.90;;;;;;5057638;28;21170;-78
2022/10/07 09:50:28;;;;;;;16.27;14.57;;;14.80;99.90;;;;;;5063704;28;20489;-78
2022/10/07 09:52:56;;;;;;;17.80;16.00;;;14.60;99.90;;;;;;5064610;28;20514;-78
2022/10/07 09:55:37;;;;;;;22.57;16.20;;;14.60;99.90;;;;;;5057299;28;20542;-78
2022/10/07 09:58:06;;;;;;;15.00;13.50;;;14.50;99.90;;;;;;5057198;28;20961;-78
2022/10/07 10:00:42;;;;;;;17.63;14.20;;;14.70;99.90;;;;;;5061288;28;20456;-78
2022/10/07 10:03:09;;;;;;;15.43;13.87;;;15.00;99.90;;;;;;5059939;28;20584;-78
2022/10/07 10:05:38;;;;;;;12.50;11.30;;;15.20;99.90;;;;;;5064284;28;20449;-77
2022/10/07 10:08:19;;;;;;;14.67;11.97;;;15.30;99.90;;;;;;5055370;28;20485;-78
2022/10/07 10:10:52;;;;;;;19.50;17.40;;;15.40;99.90;;;;;;5063743;28;20453;-77
2022/10/07 10:13:28;;;;;;;16.40;13.73;;;15.50;99.90;;;;;;5052869;28;20456;-78
2022/10/07 10:15:55;;;;;;;16.00;14.03;;;15.40;99.90;;;;;;5064241;28;20509;-78
2022/10/07 10:18:35;;;;;;;18.63;13.70;;;15.50;99.90;;;;;;5060605;28;20450;-78
2022/10/07 10:21:19;;;;;;;15.73;13.70;;;15.50;99.90;;;;;;5056372;28;20465;-78
2022/10/07 10:23:48;;;;;;;36.43;29.10;;;15.50;99.90;;;;;;5062872;28;20446;-78
2022/10/07 10:26:37;;;;;;;15.23;13.63;;;15.50;99.90;;;;;;5060334;28;20479;-77
2022/10/07 10:29:16;;;;;;;15.40;13.60;;;15.60;99.90;;;;;;5045834;28;20624;-77
2022/10/07 10:32:04;;;;;;;16.60;13.43;;;15.50;99.90;;;;;;5058067;28;20474;-77
2022/10/07 10:34:41;;;;;;;15.67;11.77;;;15.20;99.90;;;;;;5050987;28;20533;-77
2022/10/07 10:37:17;;;;;;;13.87;12.30;;;15.40;99.90;;;;;;5058025;28;20456;-75
2022/10/07 10:40:00;;;;;;;15.73;13.63;;;15.60;99.90;;;;;;5058257;28;20875;-75
2022/10/07 10:42:40;;;;;;;14.63;13.23;;;15.60;99.90;;;;;;5055575;28;20472;-76
2022/10/07 10:45:17;;;;;;;13.40;12.13;;;15.70;99.90;;;;;;5047424;28;20496;-79
2022/10/07 10:48:17;;;;;;;14.03;12.73;;;15.80;99.90;;;;;;5054253;28;20577;-76
2022/10/07 10:50:52;;;;;;;15.60;14.00;;;15.60;99.90;;;;;;5058004;28;20913;-77
2022/10/07 10:53:33;;;;;;;15.40;12.23;;;15.50;99.90;;;;;;5055094;28;20467;-78
2022/10/07 10:56:20;;;;;;;15.13;13.27;;;15.40;99.90;;;;;;5054084;28;20470;-78
2022/10/07 10:59:02;;;;;;;14.47;12.97;;;15.30;99.90;;;;;;5047903;28;20488;-78
2022/10/07 11:01:35;;;;;;;12.80;11.50;;;15.50;99.90;;;;;;5054994;28;20475;-77
2022/10/07 11:04:26;;;;;;;14.67;13.17;;;15.40;99.90;;;;;;5053899;28;20467;-78
2022/10/07 11:06:58;;;;;;;11.80;10.60;;;15.80;99.90;;;;;;5050867;28;20464;-75
2022/10/07 11:09:33;;;;;;;11.63;10.50;;;15.90;99.90;;;;;;5053194;28;20935;-75
2022/10/07 11:12:05;;;;;;;13.03;11.63;;;15.80;99.90;;;;;;5049262;28;20470;-75
2022/10/07 11:14:40;;;;;;;12.23;11.13;;;15.90;99.90;;;;;;5045451;28;20465;-75
2022/10/07 11:17:10;;;;;;;14.97;12.87;;;15.70;99.90;;;;;;5054151;28;20460;-75
2022/10/07 11:19:42;;;;;;;12.70;11.50;;;15.90;99.90;;;;;;5052483;28;20984;-75
2022/10/07 11:22:15;;;;;;;12.97;11.50;;;16.00;99.90;;;;;;5039347;28;20506;-75
2022/10/07 11:24:49;;;;;;;14.43;12.17;;;16.30;99.90;;;;;;5042718;28;20958;-75
2022/10/07 11:27:19;;;;;;;11.67;10.47;;;16.30;99.90;;;;;;5056141;28;20488;-75
2022/10/07 11:29:51;;;;;;;13.37;11.77;;;16.10;99.90;;;;;;5058991;28;20501;-77
2022/10/07 11:32:24;;;;;;;13.63;11.67;;;15.90;99.90;;;;;;5047359;28;20493;-77
2022/10/07 11:34:55;;;;;;;13.57;12.27;;;15.80;99.90;;;;;;5059495;28;20453;-77
2022/10/07 11:37:29;;;;;;;13.03;11.83;;;15.50;99.90;;;;;;5054555;28;20460;-76
2022/10/07 11:39:56;;;;;;;12.90;11.73;;;15.30;99.90;;;;;;5060393;28;21679;-77
2022/10/07 11:42:26;;;;;;;13.87;12.47;;;15.30;99.90;;;;;;5059072;28;20484;-77
2022/10/07 11:45:00;;;;;;;12.23;10.90;;;15.50;99.90;;;;;;5054070;28;20850;-77
2022/10/07 11:47:32;;;;;;;12.80;11.50;;;15.50;99.90;;;;;;5047147;28;20884;-77
2022/10/07 11:50:06;;;;;;;12.27;11.13;;;15.60;99.90;;;;;;5057123;28;20490;-77
2022/10/07 11:52:39;;;;;;;14.80;12.63;;;15.60;99.90;;;;;;5054638;28;20504;-76
2022/10/07 11:55:10;;;;;;;12.17;10.73;;;15.60;99.90;;;;;;5049767;28;20483;-77
2022/10/07 11:57:42;;;;;;;12.67;11.37;;;15.70;99.90;;;;;;5049189;28;21055;-77
2022/10/07 12:00:25;;;;;;;13.20;11.90;;;16.00;99.90;;;;;;5061501;28;20490;-76
2022/10/07 12:02:53;;;;;;;13.80;12.30;;;16.10;99.90;;;;;;5057133;28;20476;-77
2022/10/07 12:05:56;;;;;;;14.47;13.07;;;16.10;99.90;;;;;;5053311;28;20489;-77
2022/10/07 12:08:33;;;;;;;17.53;13.50;;;16.00;99.90;;;;;;5056657;28;20490;-77
2022/10/07 12:11:43;;;;;;;11.40;10.43;;;16.30;99.90;;;;;;5055949;28;20460;-77
2022/10/07 12:14:41;;;;;;;13.97;12.67;;;16.20;99.90;;;;;;5054878;28;20462;-77
2022/10/07 12:17:28;;;;;;;12.57;11.37;;;15.80;99.90;;;;;;5061463;28;20468;-76
2022/10/07 12:20:33;;;;;;;13.63;12.40;;;15.50;99.90;;;;;;5051318;28;20993;-77
2022/10/07 12:23:49;;;;;;;15.13;11.60;;;15.50;99.90;;;;;;5049835;28;20567;-77
2022/10/07 12:26:50;;;;;;;13.17;11.97;;;15.60;99.90;;;;;;5051709;28;20534;-77
2022/10/07 12:29:49;;;;;;;12.90;11.50;;;15.60;99.90;;;;;;5051461;28;21225;-78
2022/10/07 12:32:47;;;;;;;13.20;11.90;;;15.40;99.90;;;;;;5050783;28;20973;-77
2022/10/07 12:35:56;;;;;;;13.80;12.40;;;15.10;99.90;;;;;;5056890;28;20484;-78
2022/10/07 12:38:28;;;;;;;14.30;11.50;;;15.40;99.90;;;;;;5054557;28;20458;-77
2022/10/07 12:41:17;;;;;;;13.73;12.37;;;15.40;99.90;;;;;;5057615;28;20928;-77
2022/10/07 12:43:50;;;;;;;14.20;12.80;;;15.50;99.90;;;;;;5055434;28;20886;-77
2022/10/07 12:46:20;;;;;;;13.23;11.83;;;15.90;99.90;;;;;;5051390;28;20928;-77
2022/10/07 12:48:58;;;;;;;12.83;11.43;;;15.90;99.90;;;;;;5061669;28;20490;-78
2022/10/07 12:51:28;;;;;;;31.70;23.50;;;16.10;99.90;;;;;;5052226;28;20800;-78
2022/10/07 12:53:58;;;;;;;15.10;13.60;;;16.10;99.90;;;;;;5058536;28;20461;-78
2022/10/07 12:56:27;;;;;;;15.67;13.90;;;15.80;99.90;;;;;;5059802;28;20537;-78
2022/10/07 13:02:34;;;;;;;16.60;14.10;;;15.70;99.90;;;;;;5053531;28;20811;-78